sensor_id;sensor_type;location;lat;lon;timestamp;pressure;altitude;pressure_sealevel;temperature;humidity
46111;BME280;31849;55.992;37.252;2023-07-16T00:02:36;98868.31;;;15.63;71.81
46111;BME280;31849;55.992;37.252;2023-07-16T00:07:41;98871.34;;;15.78;71.51
46111;BME280;31849;55.992;37.252;2023-07-16T00:12:44;98869.34;;;15.86;71.28
46111;BME280;31849;55.992;37.252;2023-07-16T00:17:48;98862.16;;;15.91;71.17
46111;BME280;31849;55.992;37.252;2023-07-16T00:22:54;98873.94;;;16.05;71.26
46111;BME280;31849;55.992;37.252;2023-07-16T00:27:59;98869.53;;;16.07;71.09
46111;BME280;31849;55.992;37.252;2023-07-16T00:33:02;98875.50;;;16.10;70.83
46111;BME280;31849;55.992;37.252;2023-07-16T00:38:07;98873.00;;;16.07;71.04
46111;BME280;31849;55.992;37.252;2023-07-16T00:43:11;98869.63;;;16.04;71.18
46111;BME280;31849;55.992;37.252;2023-07-16T00:48:15;98865.28;;;16.03;70.96
46111;BME280;31849;55.992;37.252;2023-07-16T00:53:20;98869.47;;;16.08;70.79
46111;BME280;31849;55.992;37.252;2023-07-16T00:58:25;98870.66;;;15.99;70.92
46111;BME280;31849;55.992;37.252;2023-07-16T01:03:29;98872.53;;;15.96;71.22
46111;BME280;31849;55.992;37.252;2023-07-16T01:08:40;98877.00;;;15.92;70.85
46111;BME280;31849;55.992;37.252;2023-07-16T01:13:44;98885.34;;;15.77;71.74
46111;BME280;31849;55.992;37.252;2023-07-16T01:18:48;98871.94;;;15.59;71.72
46111;BME280;31849;55.992;37.252;2023-07-16T01:24:21;98898.19;;;15.58;71.92
46111;BME280;31849;55.992;37.252;2023-07-16T01:29:35;98900.47;;;15.40;72.24
46111;BME280;31849;55.992;37.252;2023-07-16T01:34:40;98900.72;;;15.33;72.17
46111;BME280;31849;55.992;37.252;2023-07-16T01:39:43;98902.44;;;15.34;72.12
46111;BME280;31849;55.992;37.252;2023-07-16T01:44:49;98905.00;;;15.35;72.43
46111;BME280;31849;55.992;37.252;2023-07-16T01:49:52;98904.19;;;15.33;72.21
46111;BME280;31849;55.992;37.252;2023-07-16T01:54:56;98900.66;;;15.34;72.36
46111;BME280;31849;55.992;37.252;2023-07-16T02:00:01;98902.91;;;15.46;71.89
46111;BME280;31849;55.992;37.252;2023-07-16T02:05:06;98910.09;;;15.40;72.35
46111;BME280;31849;55.992;37.252;2023-07-16T02:10:09;98915.19;;;15.44;72.19
46111;BME280;31849;55.992;37.252;2023-07-16T02:15:15;98919.16;;;15.58;72.42
46111;BME280;31849;55.992;37.252;2023-07-16T02:20:20;98919.47;;;15.75;71.86
46111;BME280;31849;55.992;37.252;2023-07-16T02:25:23;98915.53;;;15.90;71.28
46111;BME280;31849;55.992;37.252;2023-07-16T02:30:29;98922.78;;;16.09;71.16
46111;BME280;31849;55.992;37.252;2023-07-16T02:35:32;98920.50;;;16.25;70.76
46111;BME280;31849;55.992;37.252;2023-07-16T02:40:36;98918.19;;;16.41;70.08
46111;BME280;31849;55.992;37.252;2023-07-16T02:45:41;98925.47;;;16.58;69.84
46111;BME280;31849;55.992;37.252;2023-07-16T02:50:45;98919.81;;;16.68;69.38
46111;BME280;31849;55.992;37.252;2023-07-16T02:55:48;98927.16;;;16.84;68.93
46111;BME280;31849;55.992;37.252;2023-07-16T03:00:53;98922.13;;;17.03;68.51
46111;BME280;31849;55.992;37.252;2023-07-16T03:05:57;98928.75;;;17.13;67.78
46111;BME280;31849;55.992;37.252;2023-07-16T03:11:00;98928.41;;;17.45;67.17
46111;BME280;31849;55.992;37.252;2023-07-16T03:16:06;98933.81;;;17.64;66.45
46111;BME280;31849;55.992;37.252;2023-07-16T03:21:09;98944.41;;;17.83;65.77
46111;BME280;31849;55.992;37.252;2023-07-16T03:26:13;98963.03;;;18.00;65.49
46111;BME280;31849;55.992;37.252;2023-07-16T03:31:18;98950.31;;;18.12;65.42
46111;BME280;31849;55.992;37.252;2023-07-16T03:36:22;98956.75;;;18.04;65.14
46111;BME280;31849;55.992;37.252;2023-07-16T03:41:26;98957.00;;;17.98;65.36
46111;BME280;31849;55.992;37.252;2023-07-16T03:46:31;98968.09;;;18.05;65.34
46111;BME280;31849;55.992;37.252;2023-07-16T03:51:34;98955.28;;;17.97;65.24
46111;BME280;31849;55.992;37.252;2023-07-16T03:56:38;98965.72;;;17.99;65.04
46111;BME280;31849;55.992;37.252;2023-07-16T04:01:43;98967.25;;;18.04;65.27
46111;BME280;31849;55.992;37.252;2023-07-16T04:06:46;98964.88;;;17.98;65.02
46111;BME280;31849;55.992;37.252;2023-07-16T04:11:50;98976.75;;;18.08;64.98
46111;BME280;31849;55.992;37.252;2023-07-16T04:16:55;98980.22;;;18.09;64.74
46111;BME280;31849;55.992;37.252;2023-07-16T04:21:59;98981.56;;;17.97;64.90
46111;BME280;31849;55.992;37.252;2023-07-16T04:27:03;98974.59;;;17.96;65.06
46111;BME280;31849;55.992;37.252;2023-07-16T04:32:08;98979.13;;;18.15;64.67
46111;BME280;31849;55.992;37.252;2023-07-16T04:37:11;98978.09;;;18.19;64.62
46111;BME280;31849;55.992;37.252;2023-07-16T04:42:15;98983.53;;;18.35;64.10
46111;BME280;31849;55.992;37.252;2023-07-16T04:47:21;98976.53;;;18.56;63.51
46111;BME280;31849;55.992;37.252;2023-07-16T04:52:24;98978.69;;;18.67;63.39
46111;BME280;31849;55.992;37.252;2023-07-16T04:57:28;98985.97;;;18.80;63.14
46111;BME280;31849;55.992;37.252;2023-07-16T05:02:33;98978.56;;;18.90;63.01
46111;BME280;31849;55.992;37.252;2023-07-16T05:07:37;98976.25;;;19.03;62.54
46111;BME280;31849;55.992;37.252;2023-07-16T05:12:40;98980.88;;;19.17;61.93
46111;BME280;31849;55.992;37.252;2023-07-16T05:17:45;98984.31;;;19.38;61.54
46111;BME280;31849;55.992;37.252;2023-07-16T05:22:50;98995.78;;;19.56;61.09
46111;BME280;31849;55.992;37.252;2023-07-16T05:27:54;99003.56;;;19.78;60.29
46111;BME280;31849;55.992;37.252;2023-07-16T05:32:59;99001.00;;;19.96;59.89
46111;BME280;31849;55.992;37.252;2023-07-16T05:38:03;99013.72;;;20.05;59.81
46111;BME280;31849;55.992;37.252;2023-07-16T05:43:07;98999.72;;;20.22;58.75
46111;BME280;31849;55.992;37.252;2023-07-16T05:48:12;99014.03;;;20.70;58.03
46111;BME280;31849;55.992;37.252;2023-07-16T05:53:16;99007.25;;;20.65;57.89
46111;BME280;31849;55.992;37.252;2023-07-16T05:58:19;99012.47;;;20.49;58.17
46111;BME280;31849;55.992;37.252;2023-07-16T06:03:24;99018.47;;;20.87;57.81
46111;BME280;31849;55.992;37.252;2023-07-16T06:08:28;99018.91;;;21.63;55.52
46111;BME280;31849;55.992;37.252;2023-07-16T06:13:32;99016.00;;;21.83;54.87
46111;BME280;31849;55.992;37.252;2023-07-16T06:18:38;99015.72;;;22.20;54.23
46111;BME280;31849;55.992;37.252;2023-07-16T06:23:42;99022.06;;;22.47;53.45
46111;BME280;31849;55.992;37.252;2023-07-16T06:28:45;99009.16;;;24.82;48.56
46111;BME280;31849;55.992;37.252;2023-07-16T06:33:52;99015.19;;;25.61;46.36
46111;BME280;31849;55.992;37.252;2023-07-16T06:38:56;99024.91;;;27.85;41.97
46111;BME280;31849;55.992;37.252;2023-07-16T06:44:02;99007.75;;;31.14;35.94
46111;BME280;31849;55.992;37.252;2023-07-16T06:49:07;99014.00;;;33.92;34.23
46111;BME280;31849;55.992;37.252;2023-07-16T06:54:11;99007.59;;;34.01;31.03
46111;BME280;31849;55.992;37.252;2023-07-16T06:59:14;99006.50;;;35.42;28.53
46111;BME280;31849;55.992;37.252;2023-07-16T07:04:19;99004.53;;;33.79;30.26
46111;BME280;31849;55.992;37.252;2023-07-16T07:09:23;98999.53;;;31.26;33.54
46111;BME280;31849;55.992;37.252;2023-07-16T07:14:27;99008.25;;;29.92;35.51
46111;BME280;31849;55.992;37.252;2023-07-16T07:19:32;99013.81;;;28.45;37.84
46111;BME280;31849;55.992;37.252;2023-07-16T07:24:36;99004.69;;;27.14;39.98
46111;BME280;31849;55.992;37.252;2023-07-16T07:29:39;99010.28;;;26.05;42.13
46111;BME280;31849;55.992;37.252;2023-07-16T07:34:44;99009.19;;;25.33;43.84
46111;BME280;31849;55.992;37.252;2023-07-16T07:39:52;98999.72;;;26.63;41.61
46111;BME280;31849;55.992;37.252;2023-07-16T07:44:56;99012.47;;;27.40;40.28
46111;BME280;31849;55.992;37.252;2023-07-16T07:50:01;99018.28;;;27.68;39.99
46111;BME280;31849;55.992;37.252;2023-07-16T07:55:05;99019.44;;;27.98;39.09
46111;BME280;31849;55.992;37.252;2023-07-16T08:00:10;99028.22;;;28.53;38.42
46111;BME280;31849;55.992;37.252;2023-07-16T08:05:16;99025.22;;;28.14;38.39
46111;BME280;31849;55.992;37.252;2023-07-16T08:10:19;99017.50;;;27.09;39.81
46111;BME280;31849;55.992;37.252;2023-07-16T08:15:23;99027.69;;;25.48;42.67
46111;BME280;31849;55.992;37.252;2023-07-16T08:20:28;99037.19;;;24.20;44.84
46111;BME280;31849;55.992;37.252;2023-07-16T08:25:31;99033.59;;;23.50;46.39
46111;BME280;31849;55.992;37.252;2023-07-16T08:30:35;99035.50;;;24.04;45.97
46111;BME280;31849;55.992;37.252;2023-07-16T08:35:41;99033.41;;;25.28;43.49
46111;BME280;31849;55.992;37.252;2023-07-16T08:40:47;99030.56;;;26.43;41.52
46111;BME280;31849;55.992;37.252;2023-07-16T08:45:50;99014.84;;;27.09;39.92
46111;BME280;31849;55.992;37.252;2023-07-16T08:50:57;99020.59;;;28.49;37.25
46111;BME280;31849;55.992;37.252;2023-07-16T08:56:02;99014.13;;;28.51;37.10
46111;BME280;31849;55.992;37.252;2023-07-16T09:01:07;99010.66;;;28.07;37.81
46111;BME280;31849;55.992;37.252;2023-07-16T09:06:14;99011.53;;;27.96;38.30
46111;BME280;31849;55.992;37.252;2023-07-16T09:11:18;99007.09;;;27.74;38.11
46111;BME280;31849;55.992;37.252;2023-07-16T09:16:24;99009.06;;;27.49;37.94
46111;BME280;31849;55.992;37.252;2023-07-16T09:21:31;99003.97;;;27.35;37.90
46111;BME280;31849;55.992;37.252;2023-07-16T09:26:36;99008.50;;;28.01;36.91
46111;BME280;31849;55.992;37.252;2023-07-16T09:31:52;99015.47;;;28.24;35.92
46111;BME280;31849;55.992;37.252;2023-07-16T09:36:58;99009.50;;;27.77;36.17
46111;BME280;31849;55.992;37.252;2023-07-16T09:42:04;99000.41;;;27.80;36.14
46111;BME280;31849;55.992;37.252;2023-07-16T09:47:08;99018.03;;;27.37;36.08
46111;BME280;31849;55.992;37.252;2023-07-16T09:52:13;99012.00;;;27.35;36.84
46111;BME280;31849;55.992;37.252;2023-07-16T09:57:17;99007.94;;;27.29;37.10
46111;BME280;31849;55.992;37.252;2023-07-16T10:02:21;99014.38;;;27.04;38.18
46111;BME280;31849;55.992;37.252;2023-07-16T10:07:26;99015.81;;;27.19;38.29
46111;BME280;31849;55.992;37.252;2023-07-16T10:12:30;99013.88;;;26.88;38.03
46111;BME280;31849;55.992;37.252;2023-07-16T10:17:33;99010.13;;;26.55;39.01
46111;BME280;31849;55.992;37.252;2023-07-16T10:22:40;99006.34;;;26.81;37.92
46111;BME280;31849;55.992;37.252;2023-07-16T10:27:46;98994.81;;;26.70;36.96
46111;BME280;31849;55.992;37.252;2023-07-16T10:32:51;99014.13;;;26.60;36.24
46111;BME280;31849;55.992;37.252;2023-07-16T10:37:57;99010.13;;;26.55;35.92
46111;BME280;31849;55.992;37.252;2023-07-16T10:43:01;99003.97;;;26.65;35.71
46111;BME280;31849;55.992;37.252;2023-07-16T10:48:05;99009.13;;;26.80;36.18
46111;BME280;31849;55.992;37.252;2023-07-16T10:53:11;99005.16;;;27.08;36.00
46111;BME280;31849;55.992;37.252;2023-07-16T10:58:15;99008.72;;;27.43;35.23
46111;BME280;31849;55.992;37.252;2023-07-16T11:03:19;98998.00;;;27.09;34.55
46111;BME280;31849;55.992;37.252;2023-07-16T11:08:25;98998.84;;;27.09;34.50
46111;BME280;31849;55.992;37.252;2023-07-16T11:13:30;98994.84;;;27.15;35.07
46111;BME280;31849;55.992;37.252;2023-07-16T11:18:34;99000.66;;;26.86;34.34
46111;BME280;31849;55.992;37.252;2023-07-16T11:23:39;99000.63;;;26.97;35.00
46111;BME280;31849;55.992;37.252;2023-07-16T11:28:44;98973.97;;;26.97;34.78
46111;BME280;31849;55.992;37.252;2023-07-16T11:33:48;98997.00;;;26.98;35.33
46111;BME280;31849;55.992;37.252;2023-07-16T11:38:53;98996.16;;;27.09;35.19
46111;BME280;31849;55.992;37.252;2023-07-16T11:43:59;99003.97;;;27.35;34.69
46111;BME280;31849;55.992;37.252;2023-07-16T11:49:04;99019.72;;;27.27;34.70
46111;BME280;31849;55.992;37.252;2023-07-16T11:54:10;99006.13;;;27.64;34.64
46111;BME280;31849;55.992;37.252;2023-07-16T11:59:13;99005.28;;;28.18;33.54
46111;BME280;31849;55.992;37.252;2023-07-16T12:04:18;99001.31;;;28.66;32.65
46111;BME280;31849;55.992;37.252;2023-07-16T12:09:23;98995.53;;;28.61;31.91
46111;BME280;31849;55.992;37.252;2023-07-16T12:14:27;98976.59;;;28.74;31.87
46111;BME280;31849;55.992;37.252;2023-07-16T12:19:30;98985.38;;;28.22;32.83
46111;BME280;31849;55.992;37.252;2023-07-16T12:24:35;98983.56;;;28.12;33.15
46111;BME280;31849;55.992;37.252;2023-07-16T12:29:39;98980.09;;;28.00;33.41
46111;BME280;31849;55.992;37.252;2023-07-16T12:34:43;98985.69;;;27.85;33.04
46111;BME280;31849;55.992;37.252;2023-07-16T12:39:48;98994.69;;;27.84;32.97
46111;BME280;31849;55.992;37.252;2023-07-16T12:44:51;98998.13;;;27.64;33.65
46111;BME280;31849;55.992;37.252;2023-07-16T12:49:55;98993.28;;;27.24;34.71
46111;BME280;31849;55.992;37.252;2023-07-16T12:55:00;98996.16;;;27.09;34.54
46111;BME280;31849;55.992;37.252;2023-07-16T13:00:06;98988.81;;;26.66;35.44
46111;BME280;31849;55.992;37.252;2023-07-16T13:05:12;99007.28;;;26.45;36.18
46111;BME280;31849;55.992;37.252;2023-07-16T13:10:17;98997.91;;;26.04;36.04
46111;BME280;31849;55.992;37.252;2023-07-16T13:15:25;98994.84;;;25.60;37.18
46111;BME280;31849;55.992;37.252;2023-07-16T13:20:28;99007.44;;;25.45;37.78
46111;BME280;31849;55.992;37.252;2023-07-16T13:25:34;99007.75;;;25.15;38.57
46111;BME280;31849;55.992;37.252;2023-07-16T13:30:38;98999.13;;;24.60;39.82
46111;BME280;31849;55.992;37.252;2023-07-16T13:35:41;99017.84;;;24.31;40.67
46111;BME280;31849;55.992;37.252;2023-07-16T13:40:46;99014.75;;;24.24;40.38
46111;BME280;31849;55.992;37.252;2023-07-16T13:45:50;99018.16;;;24.26;41.02
46111;BME280;31849;55.992;37.252;2023-07-16T13:50:54;99009.63;;;24.21;41.41
46111;BME280;31849;55.992;37.252;2023-07-16T13:55:59;99005.56;;;24.15;41.81
46111;BME280;31849;55.992;37.252;2023-07-16T14:01:02;98992.75;;;24.62;41.34
46111;BME280;31849;55.992;37.252;2023-07-16T14:06:06;98998.50;;;25.20;40.76
46111;BME280;31849;55.992;37.252;2023-07-16T14:11:11;99002.31;;;25.55;39.37
46111;BME280;31849;55.992;37.252;2023-07-16T14:16:15;99004.69;;;25.47;39.25
46111;BME280;31849;55.992;37.252;2023-07-16T14:21:20;99002.56;;;25.39;39.98
46111;BME280;31849;55.992;37.252;2023-07-16T14:26:25;98994.34;;;25.29;40.01
46111;BME280;31849;55.992;37.252;2023-07-16T14:31:29;98994.91;;;25.21;40.28
46111;BME280;31849;55.992;37.252;2023-07-16T14:36:32;99002.13;;;25.19;40.37
46111;BME280;31849;55.992;37.252;2023-07-16T14:41:37;99003.09;;;25.05;41.46
46111;BME280;31849;55.992;37.252;2023-07-16T14:46:41;99009.81;;;24.85;41.61
46111;BME280;31849;55.992;37.252;2023-07-16T14:51:45;98994.41;;;24.50;42.06
46111;BME280;31849;55.992;37.252;2023-07-16T14:56:50;99014.94;;;24.21;42.64
46111;BME280;31849;55.992;37.252;2023-07-16T15:01:53;99011.00;;;23.86;42.80
46111;BME280;31849;55.992;37.252;2023-07-16T15:06:57;99014.03;;;23.66;43.13
46111;BME280;31849;55.992;37.252;2023-07-16T15:12:02;99017.72;;;23.78;43.42
46111;BME280;31849;55.992;37.252;2023-07-16T15:17:06;99011.06;;;23.85;42.86
46111;BME280;31849;55.992;37.252;2023-07-16T15:22:09;99014.56;;;24.00;41.72
46111;BME280;31849;55.992;37.252;2023-07-16T15:27:15;99025.09;;;24.01;41.35
46111;BME280;31849;55.992;37.252;2023-07-16T15:32:19;98992.31;;;23.74;41.45
46111;BME280;31849;55.992;37.252;2023-07-16T15:37:22;99021.31;;;23.91;41.50
46111;BME280;31849;55.992;37.252;2023-07-16T15:42:27;99019.72;;;23.74;42.14
46111;BME280;31849;55.992;37.252;2023-07-16T15:47:31;99026.91;;;23.72;42.81
46111;BME280;31849;55.992;37.252;2023-07-16T15:52:36;99028.66;;;23.59;42.81
46111;BME280;31849;55.992;37.252;2023-07-16T15:57:41;99034.00;;;23.44;42.62
46111;BME280;31849;55.992;37.252;2023-07-16T16:02:44;99030.84;;;23.23;42.50
46111;BME280;31849;55.992;37.252;2023-07-16T16:13:08;99033.72;;;22.90;43.13
46111;BME280;31849;55.992;37.252;2023-07-16T16:18:12;99029.94;;;22.79;43.50
46111;BME280;31849;55.992;37.252;2023-07-16T16:23:17;99031.41;;;22.69;44.02
46111;BME280;31849;55.992;37.252;2023-07-16T16:28:22;99035.28;;;22.63;44.01
46111;BME280;31849;55.992;37.252;2023-07-16T16:33:25;99039.13;;;22.43;45.23
46111;BME280;31849;55.992;37.252;2023-07-16T16:38:29;99033.16;;;22.24;46.00
46111;BME280;31849;55.992;37.252;2023-07-16T16:43:34;99028.97;;;22.04;46.75
46111;BME280;31849;55.992;37.252;2023-07-16T16:48:38;99038.03;;;22.00;47.28
46111;BME280;31849;55.992;37.252;2023-07-16T16:53:45;99042.13;;;21.89;47.86
46111;BME280;31849;55.992;37.252;2023-07-16T16:58:50;99041.53;;;21.84;48.43
46111;BME280;31849;55.992;37.252;2023-07-16T17:03:54;99038.13;;;21.66;48.80
46111;BME280;31849;55.992;37.252;2023-07-16T17:08:59;99041.25;;;21.57;49.24
46111;BME280;31849;55.992;37.252;2023-07-16T17:14:04;99035.59;;;21.47;49.63
46111;BME280;31849;55.992;37.252;2023-07-16T17:19:07;99036.47;;;21.30;50.16
46111;BME280;31849;55.992;37.252;2023-07-16T17:24:11;99046.78;;;21.19;50.84
46111;BME280;31849;55.992;37.252;2023-07-16T17:29:17;99049.94;;;20.92;51.70
46111;BME280;31849;55.992;37.252;2023-07-16T17:34:22;99051.19;;;20.67;52.68
46111;BME280;31849;55.992;37.252;2023-07-16T17:39:25;99052.63;;;20.55;53.20
46111;BME280;31849;55.992;37.252;2023-07-16T17:44:30;99052.97;;;20.30;54.09
46111;BME280;31849;55.992;37.252;2023-07-16T17:49:34;99057.38;;;20.12;54.55
46111;BME280;31849;55.992;37.252;2023-07-16T17:54:38;99068.53;;;20.00;55.06
46111;BME280;31849;55.992;37.252;2023-07-16T17:59:43;99063.47;;;19.95;54.88
46111;BME280;31849;55.992;37.252;2023-07-16T18:04:46;99066.59;;;19.84;55.90
46111;BME280;31849;55.992;37.252;2023-07-16T18:09:50;99058.63;;;19.65;56.31
46111;BME280;31849;55.992;37.252;2023-07-16T18:14:56;99068.91;;;19.53;57.84
46111;BME280;31849;55.992;37.252;2023-07-16T18:20:00;99080.06;;;19.39;57.80
46111;BME280;31849;55.992;37.252;2023-07-16T18:25:07;99069.22;;;19.26;58.31
46111;BME280;31849;55.992;37.252;2023-07-16T18:30:12;99077.66;;;19.13;58.70
46111;BME280;31849;55.992;37.252;2023-07-16T18:35:16;99076.16;;;18.87;59.55
46111;BME280;31849;55.992;37.252;2023-07-16T18:40:20;99075.66;;;18.77;60.03
46111;BME280;31849;55.992;37.252;2023-07-16T18:45:25;99084.09;;;18.65;60.66
46111;BME280;31849;55.992;37.252;2023-07-16T18:50:29;99066.28;;;18.50;60.97
46111;BME280;31849;55.992;37.252;2023-07-16T18:55:33;99072.66;;;18.44;61.15
46111;BME280;31849;55.992;37.252;2023-07-16T19:00:38;99068.56;;;18.37;61.49
46111;BME280;31849;55.992;37.252;2023-07-16T19:05:41;99067.94;;;18.30;61.72
46111;BME280;31849;55.992;37.252;2023-07-16T19:10:48;99070.19;;;18.19;61.65
46111;BME280;31849;55.992;37.252;2023-07-16T19:15:53;99071.28;;;18.13;62.19
46111;BME280;31849;55.992;37.252;2023-07-16T19:20:56;99075.25;;;18.01;62.33
46111;BME280;31849;55.992;37.252;2023-07-16T19:26:00;99071.41;;;17.86;63.09
46111;BME280;31849;55.992;37.252;2023-07-16T19:31:06;99067.41;;;17.76;62.90
46111;BME280;31849;55.992;37.252;2023-07-16T19:36:09;99065.69;;;17.75;63.09
46111;BME280;31849;55.992;37.252;2023-07-16T19:41:16;99063.16;;;17.72;63.08
46111;BME280;31849;55.992;37.252;2023-07-16T19:46:21;99059.19;;;17.62;63.41
46111;BME280;31849;55.992;37.252;2023-07-16T19:51:24;99051.13;;;17.43;63.99
46111;BME280;31849;55.992;37.252;2023-07-16T19:56:28;99061.81;;;17.38;64.03
46111;BME280;31849;55.992;37.252;2023-07-16T20:01:33;99064.78;;;17.29;64.37
46111;BME280;31849;55.992;37.252;2023-07-16T20:06:37;99065.97;;;17.20;64.66
46111;BME280;31849;55.992;37.252;2023-07-16T20:11:46;99067.91;;;17.15;64.74
46111;BME280;31849;55.992;37.252;2023-07-16T20:16:52;99068.09;;;17.09;64.85
46111;BME280;31849;55.992;37.252;2023-07-16T20:21:56;99066.56;;;17.03;64.90
46111;BME280;31849;55.992;37.252;2023-07-16T20:26:59;99070.25;;;16.97;64.96
46111;BME280;31849;55.992;37.252;2023-07-16T20:32:05;99085.19;;;16.95;65.01
46111;BME280;31849;55.992;37.252;2023-07-16T20:37:09;99088.81;;;16.93;65.30
46111;BME280;31849;55.992;37.252;2023-07-16T20:42:13;99083.56;;;16.93;65.19
46111;BME280;31849;55.992;37.252;2023-07-16T20:47:18;99079.00;;;16.98;65.17
46111;BME280;31849;55.992;37.252;2023-07-16T20:52:22;99077.38;;;16.94;65.41
46111;BME280;31849;55.992;37.252;2023-07-16T20:57:25;99075.78;;;16.90;65.24
46111;BME280;31849;55.992;37.252;2023-07-16T21:02:31;99078.50;;;16.86;65.36
46111;BME280;31849;55.992;37.252;2023-07-16T21:07:35;99081.31;;;16.80;65.47
46111;BME280;31849;55.992;37.252;2023-07-16T21:12:41;99075.31;;;16.77;65.55
46111;BME280;31849;55.992;37.252;2023-07-16T21:17:46;99080.63;;;16.75;65.71
46111;BME280;31849;55.992;37.252;2023-07-16T21:22:50;99086.91;;;16.69;65.69
46111;BME280;31849;55.992;37.252;2023-07-16T21:27:58;99084.41;;;16.66;65.83
46111;BME280;31849;55.992;37.252;2023-07-16T21:33:04;99075.94;;;16.58;65.98
46111;BME280;31849;55.992;37.252;2023-07-16T21:38:08;99085.03;;;16.48;66.12
46111;BME280;31849;55.992;37.252;2023-07-16T21:43:11;99080.94;;;16.39;66.29
46111;BME280;31849;55.992;37.252;2023-07-16T21:48:18;99074.00;;;16.37;66.78
46111;BME280;31849;55.992;37.252;2023-07-16T21:53:22;99073.16;;;16.36;66.53
46111;BME280;31849;55.992;37.252;2023-07-16T21:58:25;99069.81;;;16.31;66.54
46111;BME280;31849;55.992;37.252;2023-07-16T22:03:30;99074.56;;;16.20;66.65
46111;BME280;31849;55.992;37.252;2023-07-16T22:08:34;99060.97;;;16.07;66.68
46111;BME280;31849;55.992;37.252;2023-07-16T22:13:38;99081.00;;;16.09;66.91
46111;BME280;31849;55.992;37.252;2023-07-16T22:18:43;99068.72;;;16.10;67.31
46111;BME280;31849;55.992;37.252;2023-07-16T22:23:47;99074.88;;;16.09;67.53
46111;BME280;31849;55.992;37.252;2023-07-16T22:28:51;99082.78;;;16.07;67.24
46111;BME280;31849;55.992;37.252;2023-07-16T22:33:56;99082.94;;;16.03;67.43
46111;BME280;31849;55.992;37.252;2023-07-16T22:39:00;99079.78;;;15.91;67.70
46111;BME280;31849;55.992;37.252;2023-07-16T22:44:04;99079.88;;;15.88;67.92
46111;BME280;31849;55.992;37.252;2023-07-16T22:49:09;99087.69;;;15.90;67.98
46111;BME280;31849;55.992;37.252;2023-07-16T22:54:12;99089.66;;;15.83;68.08
46111;BME280;31849;55.992;37.252;2023-07-16T22:59:16;99079.06;;;15.86;68.29
46111;BME280;31849;55.992;37.252;2023-07-16T23:04:21;99081.53;;;15.91;68.27
46111;BME280;31849;55.992;37.252;2023-07-16T23:09:25;99085.94;;;15.90;68.42
46111;BME280;31849;55.992;37.252;2023-07-16T23:14:28;99088.66;;;15.87;68.19
46111;BME280;31849;55.992;37.252;2023-07-16T23:19:37;99086.13;;;15.84;68.43
46111;BME280;31849;55.992;37.252;2023-07-16T23:24:41;99084.66;;;15.74;68.87
46111;BME280;31849;55.992;37.252;2023-07-16T23:29:45;99088.34;;;15.67;68.69
46111;BME280;31849;55.992;37.252;2023-07-16T23:34:50;99087.78;;;15.55;68.85
46111;BME280;31849;55.992;37.252;2023-07-16T23:39:53;99102.66;;;15.55;69.17
46111;BME280;31849;55.992;37.252;2023-07-16T23:44:57;99094.09;;;15.48;69.33
46111;BME280;31849;55.992;37.252;2023-07-16T23:50:02;99092.19;;;15.55;69.28
46111;BME280;31849;55.992;37.252;2023-07-16T23:55:07;99092.28;;;15.52;69.40
